Time;durP1;ratioP1;P1;durP2;ratioP2;P2;SDS_P1;SDS_P2;PMS_P1;PMS_P2;Temp;Humidity;BMP_temperature;BMP_pressure;BME280_temperature;BME280_humidity;BME280_pressure;Samples;Min_cycle;Max_cycle;Signal;HPM_P1;HPM_P2
2022/03/29 00:00:17;;;;;;;;;;;23.30;33.00;;;;;;683032;28;1385;-83
2022/03/29 00:00:38;;;;;;;;;;;23.30;32.90;;;;;;685648;28;787;-83
2022/03/29 00:00:59;;;;;;;;;;;23.30;32.90;;;;;;683448;28;1227;-84
2022/03/29 00:01:20;;;;;;;;;;;23.30;33.90;;;;;;682970;29;1246;-83
2022/03/29 00:01:40;;;;;;;;;;;23.30;33.20;;;;;;683013;29;836;-83
2022/03/29 00:02:01;;;;;;;;;;;23.30;32.90;;;;;;683757;28;1398;-83
2022/03/29 00:02:22;;;;;;;;;;;23.30;33.40;;;;;;682936;29;1365;-84
2022/03/29 00:02:43;;;;;;;;;;;23.30;33.50;;;;;;682967;29;816;-84
2022/03/29 00:03:07;;;;;;;;;;;23.30;32.90;;;;;;683766;28;1246;-84
2022/03/29 00:03:28;;;;;;;;;;;23.40;33.10;;;;;;684411;28;1139;-85
2022/03/29 00:03:48;;;;;;;;;;;23.30;33.10;;;;;;685470;29;1131;-83
2022/03/29 00:04:09;;;;;;;;;;;23.30;32.90;;;;;;684971;29;1316;-85
2022/03/29 00:04:30;;;;;;;;;;;23.30;33.00;;;;;;684568;29;1009;-83
2022/03/29 00:04:50;;;;;;;;;;;23.30;32.70;;;;;;684640;29;1252;-84
2022/03/29 00:05:11;;;;;;;;;;;23.30;32.60;;;;;;684280;29;1241;-83
2022/03/29 00:05:32;;;;;;;;;;;23.30;32.80;;;;;;684250;29;1080;-83
2022/03/29 00:05:52;;;;;;;;;;;23.30;32.60;;;;;;685041;28;819;-83
2022/03/29 00:06:13;;;;;;;;;;;23.30;33.10;;;;;;687192;28;1310;-83
2022/03/29 00:06:34;;;;;;;;;;;23.30;32.50;;;;;;687151;28;1398;-84
2022/03/29 00:06:54;;;;;;;;;;;23.30;32.50;;;;;;684772;28;1230;-84
2022/03/29 00:07:15;;;;;;;;;;;23.20;33.10;;;;;;687564;28;1218;-84
2022/03/29 00:07:36;;;;;;;;;;;23.30;32.80;;;;;;686858;28;1371;-83
2022/03/29 00:07:56;;;;;;;;;;;23.30;32.80;;;;;;687119;28;1182;-84
2022/03/29 00:08:17;;;;;;;;;;;23.30;32.40;;;;;;686490;28;799;-83
2022/03/29 00:08:38;;;;;;;;;;;23.30;32.90;;;;;;685132;28;1356;-84
2022/03/29 00:08:59;;;;;;;;;;;23.30;32.60;;;;;;684601;29;1465;-84
2022/03/29 00:09:19;;;;;;;;;;;23.30;33.50;;;;;;684329;29;1253;-83
2022/03/29 00:09:40;;;;;;;;;;;23.30;32.80;;;;;;685183;28;1103;-82
2022/03/29 00:10:04;;;;;;;;;;;23.30;32.70;;;;;;684512;29;1224;-83
2022/03/29 00:10:25;;;;;;;;;;;23.30;32.60;;;;;;685247;28;1277;-83
2022/03/29 00:10:46;;;;;;;;;;;23.30;33.00;;;;;;686625;28;799;-83
2022/03/29 00:11:06;;;;;;;;;;;23.30;32.60;;;;;;687736;28;1123;-83
2022/03/29 00:11:27;;;;;;;;;;;23.30;33.40;;;;;;688111;28;985;-83
2022/03/29 00:11:47;;;;;;;;;;;23.30;33.00;;;;;;684633;29;1198;-84
2022/03/29 00:12:11;;;;;;;;;;;23.30;32.60;;;;;;684866;28;1218;-83
2022/03/29 00:12:34;;;;;;;;;;;23.30;32.40;;;;;;688023;28;953;-83
2022/03/29 00:12:55;;;;;;;;;;;23.30;32.40;;;;;;686503;28;1202;-83
2022/03/29 00:13:16;;;;;;;;;;;23.30;33.00;;;;;;686519;28;1364;-83
2022/03/29 00:13:36;;;;;;;;;;;23.30;32.90;;;;;;686379;28;1317;-84
2022/03/29 00:13:57;;;;;;;;;;;23.30;32.90;;;;;;686441;28;1245;-84
2022/03/29 00:14:17;;;;;;;;;;;23.30;32.60;;;;;;686485;28;1213;-84
2022/03/29 00:14:38;;;;;;;;;;;23.30;32.30;;;;;;683806;28;1251;-83
2022/03/29 00:14:58;;;;;;;;;;;23.30;32.80;;;;;;683718;28;1107;-84
2022/03/29 00:15:20;;;;;;;;;;;23.30;33.10;;;;;;683352;29;1385;-84
2022/03/29 00:15:40;;;;;;;;;;;23.30;33.80;;;;;;683306;29;1335;-83
2022/03/29 00:16:01;;;;;;;;;;;23.20;32.80;;;;;;683789;28;1117;-84
2022/03/29 00:16:22;;;;;;;;;;;23.20;32.50;;;;;;684517;28;1240;-84
2022/03/29 00:16:42;;;;;;;;;;;23.30;33.50;;;;;;686736;28;1289;-85
2022/03/29 00:17:04;;;;;;;;;;;23.30;32.90;;;;;;687019;28;1379;-84
2022/03/29 00:17:24;;;;;;;;;;;23.30;32.50;;;;;;687254;28;1189;-84
2022/03/29 00:17:45;;;;;;;;;;;23.30;32.50;;;;;;686503;28;1289;-84
2022/03/29 00:18:06;;;;;;;;;;;23.20;32.50;;;;;;687147;28;1111;-84
2022/03/29 00:18:26;;;;;;;;;;;23.30;32.90;;;;;;684914;28;1265;-82
2022/03/29 00:18:47;;;;;;;;;;;23.30;32.40;;;;;;684394;29;1286;-83
2022/03/29 00:19:08;;;;;;;;;;;23.20;32.60;;;;;;684787;29;801;-83
2022/03/29 00:19:29;;;;;;;;;;;23.30;32.50;;;;;;684608;29;824;-85
2022/03/29 00:19:50;;;;;;;;;;;23.20;32.90;;;;;;684912;28;1376;-84
2022/03/29 00:20:10;;;;;;;;;;;23.30;33.20;;;;;;684485;28;1895;-83
2022/03/29 00:20:31;;;;;;;;;;;23.30;32.50;;;;;;682276;29;1235;-84
2022/03/29 00:20:52;;;;;;;;;;;23.30;32.20;;;;;;684319;29;1300;-83
2022/03/29 00:21:12;;;;;;;;;;;23.30;32.60;;;;;;680888;29;1092;-85
2022/03/29 00:21:33;;;;;;;;;;;23.20;32.80;;;;;;680848;29;1289;-84
2022/03/29 00:21:53;;;;;;;;;;;23.30;32.70;;;;;;681100;29;1228;-84
2022/03/29 00:22:14;;;;;;;;;;;23.30;33.40;;;;;;683658;28;1231;-85
2022/03/29 00:22:35;;;;;;;;;;;23.30;34.40;;;;;;685960;28;1329;-85
2022/03/29 00:22:55;;;;;;;;;;;23.40;34.10;;;;;;686375;28;1391;-84
2022/03/29 00:23:18;;;;;;;;;;;22.80;32.70;;;;;;685771;28;1127;-83
2022/03/29 00:23:38;;;;;;;;;;;23.30;33.00;;;;;;683885;28;1281;-84
2022/03/29 00:23:59;;;;;;;;;;;23.30;32.90;;;;;;686034;28;1278;-84
2022/03/29 00:24:19;;;;;;;;;;;23.30;32.70;;;;;;686280;28;875;-83
2022/03/29 00:24:40;;;;;;;;;;;23.30;32.80;;;;;;683804;28;1346;-83
2022/03/29 00:25:00;;;;;;;;;;;23.30;33.20;;;;;;686042;28;768;-84
2022/03/29 00:25:21;;;;;;;;;;;23.30;33.00;;;;;;683725;28;1204;-84
2022/03/29 00:25:42;;;;;;;;;;;23.30;32.70;;;;;;683454;29;1340;-84
2022/03/29 00:26:02;;;;;;;;;;;23.30;33.60;;;;;;683446;29;852;-84
2022/03/29 00:26:23;;;;;;;;;;;23.30;32.50;;;;;;681128;29;1177;-84
2022/03/29 00:26:44;;;;;;;;;;;23.30;32.60;;;;;;682975;29;1206;-83
2022/03/29 00:27:05;;;;;;;;;;;23.30;32.70;;;;;;680956;29;1139;-84
2022/03/29 00:27:26;;;;;;;;;;;23.30;33.30;;;;;;683976;28;1109;-84
2022/03/29 00:27:48;;;;;;;;;;;23.30;33.20;;;;;;685973;28;1094;-84
2022/03/29 00:28:09;;;;;;;;;;;23.30;32.60;;;;;;685927;28;1110;-84
2022/03/29 00:28:29;;;;;;;;;;;23.30;32.80;;;;;;686218;28;1296;-84
2022/03/29 00:28:50;;;;;;;;;;;23.30;32.60;;;;;;686044;28;1194;-84
2022/03/29 00:29:11;;;;;;;;;;;23.30;32.70;;;;;;685997;28;1304;-83
2022/03/29 00:29:32;;;;;;;;;;;23.30;33.10;;;;;;686077;28;1278;-84
2022/03/29 00:29:52;;;;;;;;;;;23.50;33.70;;;;;;683329;29;1304;-85
2022/03/29 00:30:15;;;;;;;;;;;23.30;33.70;;;;;;683619;28;1328;-83
2022/03/29 00:30:35;;;;;;;;;;;23.30;32.20;;;;;;683296;29;1405;-84
2022/03/29 00:30:56;;;;;;;;;;;23.30;32.40;;;;;;683513;29;938;-84
2022/03/29 00:31:16;;;;;;;;;;;23.30;33.80;;;;;;681098;29;1194;-84
2022/03/29 00:31:37;;;;;;;;;;;23.40;34.00;;;;;;681205;29;1218;-84
2022/03/29 00:31:57;;;;;;;;;;;23.40;33.10;;;;;;680571;29;1450;-84
2022/03/29 00:32:18;;;;;;;;;;;23.40;32.50;;;;;;681047;29;1401;-83
2022/03/29 00:32:40;;;;;;;;;;;23.40;32.70;;;;;;683358;29;1224;-84
2022/03/29 00:33:00;;;;;;;;;;;23.40;32.20;;;;;;683729;28;1356;-84
2022/03/29 00:33:21;;;;;;;;;;;23.40;33.20;;;;;;683191;29;1361;-84
2022/03/29 00:33:41;;;;;;;;;;;23.40;33.20;;;;;;680725;29;1234;-84
2022/03/29 00:34:02;;;;;;;;;;;23.40;32.60;;;;;;678336;29;1167;-84
2022/03/29 00:34:23;;;;;;;;;;;23.40;33.20;;;;;;680785;29;1387;-84
2022/03/29 00:34:43;;;;;;;;;;;23.40;33.40;;;;;;680880;29;1160;-84
2022/03/29 00:35:04;;;;;;;;;;;23.40;33.10;;;;;;683481;28;1159;-84
2022/03/29 00:35:24;;;;;;;;;;;23.40;32.60;;;;;;686034;28;1116;-84
2022/03/29 00:35:45;;;;;;;;;;;23.40;32.90;;;;;;683643;28;1309;-84
2022/03/29 00:36:06;;;;;;;;;;;23.40;32.50;;;;;;683231;28;1122;-84
2022/03/29 00:36:28;;;;;;;;;;;23.40;32.20;;;;;;683374;29;1182;-84
2022/03/29 00:36:48;;;;;;;;;;;23.40;32.00;;;;;;683422;29;1418;-85
2022/03/29 00:37:09;;;;;;;;;;;23.40;33.80;;;;;;680636;29;1294;-85
2022/03/29 00:37:30;;;;;;;;;;;23.40;32.90;;;;;;681193;29;1218;-85
2022/03/29 00:37:51;;;;;;;;;;;23.40;33.00;;;;;;683996;28;895;-85
2022/03/29 00:38:18;;;;;;;;;;;23.40;32.10;;;;;;683677;29;1238;-86
2022/03/29 00:38:39;;;;;;;;;;;23.40;32.00;;;;;;683428;29;808;-86
2022/03/29 00:39:00;;;;;;;;;;;23.40;33.40;;;;;;684729;28;878;-86
2022/03/29 00:39:21;;;;;;;;;;;23.40;31.80;;;;;;684656;28;1699;-85
2022/03/29 00:39:44;;;;;;;;;;;23.30;32.40;;;;;;684276;29;1195;-87
2022/03/29 00:40:05;;;;;;;;;;;23.40;31.70;;;;;;685042;28;1957;-84
2022/03/29 00:40:26;;;;;;;;;;;23.40;32.10;;;;;;683820;29;1403;-85
2022/03/29 00:40:47;;;;;;;;;;;23.40;32.20;;;;;;683777;29;1210;-84
2022/03/29 00:41:10;;;;;;;;;;;23.40;34.30;;;;;;681756;29;1699;-88
2022/03/29 00:41:31;;;;;;;;;;;23.40;32.10;;;;;;684923;28;1271;-85
2022/03/29 00:41:52;;;;;;;;;;;23.40;33.90;;;;;;684345;28;1131;-85
2022/03/29 00:42:12;;;;;;;;;;;21.40;31.70;;;;;;683425;29;1087;-85
2022/03/29 00:42:34;;;;;;;;;;;23.40;34.50;;;;;;683724;29;1202;-85
2022/03/29 00:42:54;;;;;;;;;;;23.40;33.70;;;;;;684188;29;1590;-85
2022/03/29 00:43:15;;;;;;;;;;;23.40;32.60;;;;;;683941;28;1451;-86
2022/03/29 00:43:36;;;;;;;;;;;23.40;32.70;;;;;;686474;28;1399;-85
2022/03/29 00:43:57;;;;;;;;;;;23.40;32.50;;;;;;687075;28;1229;-85
2022/03/29 00:44:17;;;;;;;;;;;23.40;32.60;;;;;;686044;28;1264;-85
2022/03/29 00:44:38;;;;;;;;;;;23.40;32.10;;;;;;685966;28;1354;-85
2022/03/29 00:44:59;;;;;;;;;;;23.40;32.90;;;;;;686229;28;958;-86
2022/03/29 00:45:19;;;;;;;;;;;23.40;32.20;;;;;;684165;29;1382;-85
2022/03/29 00:45:40;;;;;;;;;;;23.40;32.40;;;;;;681367;29;1390;-85
2022/03/29 00:46:01;;;;;;;;;;;23.40;32.60;;;;;;681158;29;1241;-85
2022/03/29 00:46:22;;;;;;;;;;;23.40;33.60;;;;;;681312;29;1108;-85
2022/03/29 00:46:42;;;;;;;;;;;23.40;32.50;;;;;;681329;29;1347;-85
2022/03/29 00:47:03;;;;;;;;;;;23.40;32.30;;;;;;683956;28;1321;-85
2022/03/29 00:47:24;;;;;;;;;;;23.40;33.70;;;;;;686860;28;1223;-84
2022/03/29 00:47:44;;;;;;;;;;;23.40;32.20;;;;;;685956;28;1245;-85
2022/03/29 00:48:08;;;;;;;;;;;23.40;31.80;;;;;;686133;28;1456;-85
2022/03/29 00:48:28;;;;;;;;;;;23.40;32.10;;;;;;686125;28;1248;-85
2022/03/29 00:48:49;;;;;;;;;;;23.40;32.60;;;;;;686365;28;1381;-85
2022/03/29 00:49:10;;;;;;;;;;;23.50;32.90;;;;;;686244;28;1239;-84
2022/03/29 00:49:31;;;;;;;;;;;23.40;33.80;;;;;;686227;28;1374;-85
2022/03/29 00:49:52;;;;;;;;;;;23.40;32.20;;;;;;683505;29;1361;-85
2022/03/29 00:50:12;;;;;;;;;;;23.40;33.30;;;;;;683349;29;1120;-85
2022/03/29 00:50:35;;;;;;;;;;;23.40;32.00;;;;;;683769;28;1229;-85
2022/03/29 00:50:55;;;;;;;;;;;23.40;31.90;;;;;;683176;29;1159;-85
2022/03/29 00:51:16;;;;;;;;;;;23.40;32.40;;;;;;683923;28;1082;-84
2022/03/29 00:51:37;;;;;;;;;;;23.40;31.80;;;;;;683342;29;1084;-85
2022/03/29 00:51:59;;;;;;;;;;;23.40;31.80;;;;;;683332;29;1183;-85
2022/03/29 00:52:20;;;;;;;;;;;23.40;31.90;;;;;;681600;29;1242;-85
2022/03/29 00:52:41;;;;;;;;;;;23.40;32.10;;;;;;685987;28;1095;-84
2022/03/29 00:53:02;;;;;;;;;;;23.40;31.80;;;;;;685975;28;1329;-85
2022/03/29 00:53:23;;;;;;;;;;;23.40;31.60;;;;;;686204;28;1093;-86
2022/03/29 00:53:44;;;;;;;;;;;23.40;31.80;;;;;;686031;28;855;-85
2022/03/29 00:54:04;;;;;;;;;;;23.40;33.70;;;;;;683670;28;1102;-85
2022/03/29 00:54:25;;;;;;;;;;;23.40;32.70;;;;;;686093;28;887;-85
2022/03/29 00:54:46;;;;;;;;;;;23.40;31.60;;;;;;685925;28;1473;-85
2022/03/29 00:55:07;;;;;;;;;;;23.60;31.60;;;;;;683210;29;1428;-85
2022/03/29 00:55:28;;;;;;;;;;;23.40;31.10;;;;;;683150;29;1194;-85
2022/03/29 00:55:49;;;;;;;;;;;23.40;31.50;;;;;;683320;29;1236;-84
2022/03/29 00:56:10;;;;;;;;;;;23.40;31.30;;;;;;680617;29;1554;-85
2022/03/29 00:56:31;;;;;;;;;;;23.40;32.60;;;;;;678439;29;1218;-85
2022/03/29 00:56:52;;;;;;;;;;;23.40;31.60;;;;;;681180;29;1138;-84
2022/03/29 00:57:12;;;;;;;;;;;23.40;31.20;;;;;;683230;29;891;-85
2022/03/29 00:57:34;;;;;;;;;;;23.40;31.80;;;;;;681087;29;1236;-85
2022/03/29 00:57:55;;;;;;;;;;;23.40;32.30;;;;;;683730;28;1222;-84
2022/03/29 00:58:16;;;;;;;;;;;23.40;32.10;;;;;;683109;29;1122;-84
2022/03/29 00:58:37;;;;;;;;;;;23.40;31.30;;;;;;680630;29;1400;-85
2022/03/29 00:58:58;;;;;;;;;;;23.40;31.10;;;;;;680674;29;1442;-85
2022/03/29 00:59:18;;;;;;;;;;;23.40;32.00;;;;;;678550;29;1211;-85
2022/03/29 00:59:41;;;;;;;;;;;23.40;32.20;;;;;;680952;29;1084;-84
2022/03/29 01:00:02;;;;;;;;;;;23.40;31.60;;;;;;683909;28;1949;-83
2022/03/29 01:00:23;;;;;;;;;;;23.40;31.50;;;;;;683180;28;1294;-84
2022/03/29 01:00:44;;;;;;;;;;;23.40;32.50;;;;;;680492;29;1305;-85
2022/03/29 01:01:05;;;;;;;;;;;23.40;31.40;;;;;;681229;29;1274;-84
2022/03/29 01:01:26;;;;;;;;;;;23.40;31.00;;;;;;684080;28;1351;-84
2022/03/29 01:01:46;;;;;;;;;;;23.40;32.70;;;;;;683211;29;1405;-84
2022/03/29 01:02:07;;;;;;;;;;;23.40;31.60;;;;;;683363;28;1464;-84
2022/03/29 01:02:27;;;;;;;;;;;23.40;31.60;;;;;;683268;29;1316;-84
2022/03/29 01:02:48;;;;;;;;;;;23.40;31.10;;;;;;683772;28;899;-83
2022/03/29 01:03:09;;;;;;;;;;;23.40;31.70;;;;;;683169;29;1341;-83
2022/03/29 01:03:33;;;;;;;;;;;23.40;31.40;;;;;;683412;28;1330;-84
2022/03/29 01:03:54;;;;;;;;;;;23.40;31.10;;;;;;683295;29;1375;-84
2022/03/29 01:04:15;;;;;;;;;;;23.40;31.60;;;;;;684133;28;752;-83
2022/03/29 01:04:35;;;;;;;;;;;23.40;31.60;;;;;;685808;28;1176;-84
2022/03/29 01:04:56;;;;;;;;;;;23.40;31.20;;;;;;686828;28;807;-84
2022/03/29 01:05:17;;;;;;;;;;;23.40;31.80;;;;;;685835;28;1300;-84
2022/03/29 01:05:38;;;;;;;;;;;23.40;31.50;;;;;;686377;28;543;-83
2022/03/29 01:05:58;;;;;;;;;;;23.40;31.50;;;;;;685805;28;1310;-84
2022/03/29 01:06:19;;;;;;;;;;;23.50;31.60;;;;;;686017;28;780;-83
2022/03/29 01:06:39;;;;;;;;;;;23.40;31.70;;;;;;685717;28;1313;-84
2022/03/29 01:07:00;;;;;;;;;;;23.40;31.40;;;;;;685818;28;1534;-83
2022/03/29 01:07:21;;;;;;;;;;;23.40;30.90;;;;;;683305;29;851;-84
2022/03/29 01:07:42;;;;;;;;;;;23.40;30.90;;;;;;680804;29;1179;-83
2022/03/29 01:08:03;;;;;;;;;;;23.40;31.00;;;;;;683169;29;1354;-84
2022/03/29 01:08:25;;;;;;;;;;;23.40;31.40;;;;;;683575;28;1261;-84
2022/03/29 01:08:45;;;;;;;;;;;23.40;30.90;;;;;;682606;29;1281;-84
2022/03/29 01:09:06;;;;;;;;;;;23.40;31.00;;;;;;681149;29;879;-84
2022/03/29 01:09:27;;;;;;;;;;;23.40;31.30;;;;;;683271;29;1101;-83
2022/03/29 01:09:47;;;;;;;;;;;23.40;30.80;;;;;;683846;28;862;-84
2022/03/29 01:10:08;;;;;;;;;;;23.40;31.00;;;;;;685897;28;945;-84
2022/03/29 01:10:29;;;;;;;;;;;23.40;31.30;;;;;;686101;28;895;-84
2022/03/29 01:10:50;;;;;;;;;;;23.40;31.10;;;;;;685522;28;1365;-84
2022/03/29 01:11:12;;;;;;;;;;;20.90;29.70;;;;;;683232;28;1209;-84
2022/03/29 01:11:32;;;;;;;;;;;23.40;31.00;;;;;;683252;28;800;-84
2022/03/29 01:11:53;;;;;;;;;;;23.40;31.10;;;;;;683362;29;800;-85
2022/03/29 01:12:14;;;;;;;;;;;23.40;31.30;;;;;;683719;28;1312;-84
2022/03/29 01:12:36;;;;;;;;;;;23.50;32.60;;;;;;685894;28;812;-84
2022/03/29 01:12:57;;;;;;;;;;;23.40;32.10;;;;;;686686;28;874;-84
2022/03/29 01:13:18;;;;;;;;;;;23.40;31.00;;;;;;685813;28;1233;-83
2022/03/29 01:13:39;;;;;;;;;;;23.40;30.70;;;;;;685843;28;921;-84
2022/03/29 01:13:59;;;;;;;;;;;23.40;30.70;;;;;;686334;28;1190;-83
2022/03/29 01:14:24;;;;;;;;;;;23.40;31.00;;;;;;685903;28;1173;-84
2022/03/29 01:14:44;;;;;;;;;;;23.40;31.00;;;;;;682724;29;1422;-84
2022/03/29 01:15:06;;;;;;;;;;;23.40;30.80;;;;;;683675;28;1228;-84
2022/03/29 01:15:29;;;;;;;;;;;23.40;30.70;;;;;;685634;28;1221;-84
2022/03/29 01:15:50;;;;;;;;;;;23.40;30.60;;;;;;683187;29;1202;-83
2022/03/29 01:17:39;;;;;;;;;;;23.40;30.80;;;;;;688677;28;618;-84
2022/03/29 01:18:01;;;;;;;;;;;23.40;30.80;;;;;;691246;28;863;-84
2022/03/29 01:18:26;;;;;;;;;;;23.40;31.10;;;;;;688509;28;1391;-84
2022/03/29 01:18:47;;;;;;;;;;;23.40;31.40;;;;;;688570;28;831;-84
2022/03/29 01:19:09;;;;;;;;;;;23.40;31.20;;;;;;685812;28;1351;-84
2022/03/29 01:19:30;;;;;;;;;;;23.40;30.60;;;;;;685875;28;815;-84
2022/03/29 01:19:52;;;;;;;;;;;23.40;31.00;;;;;;686019;28;808;-84
2022/03/29 01:20:16;;;;;;;;;;;23.40;30.60;;;;;;687167;28;1922;-84
2022/03/29 01:20:37;;;;;;;;;;;23.40;30.90;;;;;;688538;28;1438;-84
2022/03/29 01:20:59;;;;;;;;;;;23.40;30.60;;;;;;685957;28;1250;-84
2022/03/29 01:21:20;;;;;;;;;;;23.40;30.50;;;;;;685984;28;883;-83
2022/03/29 01:21:41;;;;;;;;;;;23.30;30.80;;;;;;683108;29;1435;-84
2022/03/29 01:22:03;;;;;;;;;;;23.40;31.10;;;;;;683141;29;1217;-84
2022/03/29 01:22:24;;;;;;;;;;;23.40;30.70;;;;;;684095;28;828;-84
2022/03/29 01:22:46;;;;;;;;;;;23.40;30.60;;;;;;683885;28;1396;-84
2022/03/29 01:23:08;;;;;;;;;;;23.40;30.60;;;;;;683162;29;1265;-84
2022/03/29 01:23:29;;;;;;;;;;;23.40;30.80;;;;;;683143;29;1549;-84
2022/03/29 01:23:49;;;;;;;;;;;23.40;30.60;;;;;;683142;29;1326;-84
2022/03/29 01:24:11;;;;;;;;;;;23.40;30.50;;;;;;683212;29;1392;-84
2022/03/29 01:24:32;;;;;;;;;;;23.40;31.00;;;;;;683138;29;1439;-84
2022/03/29 01:24:52;;;;;;;;;;;23.40;31.50;;;;;;683855;28;1237;-84
2022/03/29 01:25:18;;;;;;;;;;;23.40;31.00;;;;;;685163;28;1151;-84
2022/03/29 01:25:39;;;;;;;;;;;23.40;30.60;;;;;;683211;29;785;-84
2022/03/29 01:26:00;;;;;;;;;;;23.40;31.00;;;;;;684295;28;839;-84
2022/03/29 01:26:21;;;;;;;;;;;23.40;31.00;;;;;;684318;28;1521;-84
2022/03/29 01:26:41;;;;;;;;;;;23.40;30.60;;;;;;684120;28;1369;-84
2022/03/29 01:27:04;;;;;;;;;;;23.40;31.10;;;;;;683166;29;1209;-84
2022/03/29 01:27:24;;;;;;;;;;;23.40;30.80;;;;;;683221;29;878;-85
2022/03/29 01:27:46;;;;;;;;;;;23.40;31.10;;;;;;683183;29;776;-84
2022/03/29 01:28:07;;;;;;;;;;;23.40;30.70;;;;;;681148;29;1349;-84
2022/03/29 01:28:27;;;;;;;;;;;23.40;31.00;;;;;;683899;28;1269;-83
2022/03/29 01:28:48;;;;;;;;;;;23.50;30.60;;;;;;686523;28;1209;-84
2022/03/29 01:29:09;;;;;;;;;;;23.40;30.60;;;;;;688485;28;1173;-83
2022/03/29 01:29:30;;;;;;;;;;;23.40;30.80;;;;;;685555;28;1258;-84
2022/03/29 01:29:52;;;;;;;;;;;23.40;31.00;;;;;;683167;29;1370;-83
2022/03/29 01:30:13;;;;;;;;;;;23.40;30.50;;;;;;683214;29;870;-85
2022/03/29 01:30:34;;;;;;;;;;;23.40;30.70;;;;;;680465;29;899;-84
2022/03/29 01:30:55;;;;;;;;;;;23.40;30.50;;;;;;681249;29;1324;-84
2022/03/29 01:31:15;;;;;;;;;;;23.40;30.60;;;;;;681152;29;1274;-84
2022/03/29 01:31:36;;;;;;;;;;;23.40;30.50;;;;;;683649;28;1424;-84
2022/03/29 01:31:57;;;;;;;;;;;23.40;30.40;;;;;;685381;28;1332;-84
2022/03/29 01:32:18;;;;;;;;;;;23.40;30.20;;;;;;683239;28;1352;-84
2022/03/29 01:32:39;;;;;;;;;;;23.40;31.10;;;;;;683167;29;1261;-84
2022/03/29 01:33:01;;;;;;;;;;;23.40;30.80;;;;;;683021;29;1266;-84
2022/03/29 01:33:22;;;;;;;;;;;23.40;30.50;;;;;;680438;29;1250;-83
2022/03/29 01:33:42;;;;;;;;;;;23.50;31.50;;;;;;681200;29;823;-84
2022/03/29 01:34:04;;;;;;;;;;;23.40;32.30;;;;;;680444;29;1309;-84
2022/03/29 01:34:25;;;;;;;;;;;23.40;30.70;;;;;;681409;29;1359;-84
2022/03/29 01:34:45;;;;;;;;;;;23.40;31.10;;;;;;683114;29;1092;-84
2022/03/29 01:35:07;;;;;;;;;;;23.40;30.80;;;;;;683583;28;1320;-84
2022/03/29 01:35:28;;;;;;;;;;;23.40;31.10;;;;;;683232;29;1092;-83
2022/03/29 01:35:49;;;;;;;;;;;23.40;30.70;;;;;;683198;29;1314;-84
2022/03/29 01:36:10;;;;;;;;;;;23.40;30.90;;;;;;683280;29;946;-84
2022/03/29 01:36:30;;;;;;;;;;;23.40;31.10;;;;;;683732;28;1155;-83
2022/03/29 01:36:51;;;;;;;;;;;23.40;31.10;;;;;;683687;28;1242;-84
2022/03/29 01:37:11;;;;;;;;;;;23.40;30.80;;;;;;686260;28;877;-84
2022/03/29 01:37:33;;;;;;;;;;;23.40;31.00;;;;;;688636;28;784;-84
2022/03/29 01:37:55;;;;;;;;;;;22.70;30.60;;;;;;685700;28;1334;-85
2022/03/29 01:38:15;;;;;;;;;;;23.40;30.70;;;;;;683175;29;1397;-84
2022/03/29 01:38:36;;;;;;;;;;;23.40;31.10;;;;;;683613;28;1241;-84
2022/03/29 01:38:56;;;;;;;;;;;23.40;31.40;;;;;;685857;28;1460;-85
2022/03/29 01:39:17;;;;;;;;;;;23.40;31.20;;;;;;685736;28;1219;-86
2022/03/29 01:39:37;;;;;;;;;;;23.40;31.50;;;;;;683175;29;1383;-85
2022/03/29 01:39:58;;;;;;;;;;;23.40;31.00;;;;;;682941;29;1886;-86
2022/03/29 01:40:20;;;;;;;;;;;23.40;30.80;;;;;;683597;28;816;-85
2022/03/29 01:40:40;;;;;;;;;;;23.40;30.90;;;;;;685719;28;1332;-85
2022/03/29 01:41:05;;;;;;;;;;;23.40;31.50;;;;;;685788;28;780;-85
2022/03/29 01:41:28;;;;;;;;;;;23.40;30.90;;;;;;687071;28;796;-86
2022/03/29 01:41:49;;;;;;;;;;;23.40;30.70;;;;;;685822;28;1400;-86
2022/03/29 01:42:09;;;;;;;;;;;23.40;32.30;;;;;;683076;29;1277;-85
2022/03/29 01:42:30;;;;;;;;;;;23.50;32.80;;;;;;684272;28;1297;-86
2022/03/29 01:42:58;;;;;;;;;;;23.40;31.80;;;;;;685986;28;886;-85
2022/03/29 01:43:19;;;;;;;;;;;23.40;30.60;;;;;;683165;29;1140;-85
2022/03/29 01:43:39;;;;;;;;;;;23.40;31.00;;;;;;684308;28;1474;-85
2022/03/29 01:44:00;;;;;;;;;;;23.40;30.60;;;;;;685800;28;787;-86
2022/03/29 01:44:20;;;;;;;;;;;23.30;31.00;;;;;;683364;29;1164;-85
2022/03/29 01:44:44;;;;;;;;;;;23.30;32.30;;;;;;683055;29;1225;-85
2022/03/29 01:45:05;;;;;;;;;;;23.20;30.40;;;;;;683779;28;800;-86
2022/03/29 01:45:26;;;;;;;;;;;23.40;30.70;;;;;;686584;28;1182;-86
2022/03/29 01:45:47;;;;;;;;;;;23.40;31.00;;;;;;685725;28;1220;-86
2022/03/29 01:46:12;;;;;;;;;;;23.40;30.70;;;;;;686515;28;1240;-85
2022/03/29 01:46:33;;;;;;;;;;;23.40;31.00;;;;;;688484;28;1130;-86
2022/03/29 01:46:53;;;;;;;;;;;23.40;30.70;;;;;;685845;28;1204;-86
2022/03/29 01:47:18;;;;;;;;;;;23.40;30.50;;;;;;684669;28;1254;-86
2022/03/29 01:47:39;;;;;;;;;;;23.40;30.90;;;;;;684994;28;1156;-86
2022/03/29 01:48:00;;;;;;;;;;;23.30;31.60;;;;;;684217;28;1320;-85
2022/03/29 01:48:20;;;;;;;;;;;23.40;31.80;;;;;;685785;28;1118;-85
2022/03/29 01:48:41;;;;;;;;;;;23.30;30.40;;;;;;686662;28;1360;-86
2022/03/29 01:49:02;;;;;;;;;;;23.30;30.50;;;;;;686502;28;1344;-86
2022/03/29 01:49:23;;;;;;;;;;;23.30;30.40;;;;;;688180;28;878;-86
2022/03/29 01:49:43;;;;;;;;;;;23.30;30.50;;;;;;682674;28;1531;-86
2022/03/29 01:50:04;;;;;;;;;;;23.30;30.90;;;;;;680789;29;1264;-86
2022/03/29 01:50:25;;;;;;;;;;;23.30;30.30;;;;;;683204;29;1354;-86
2022/03/29 01:50:48;;;;;;;;;;;23.30;30.30;;;;;;683069;29;1108;-85
2022/03/29 01:51:10;;;;;;;;;;;23.30;30.90;;;;;;683070;29;894;-85
2022/03/29 01:51:31;;;;;;;;;;;23.30;31.30;;;;;;683136;29;1269;-85
2022/03/29 01:51:51;;;;;;;;;;;23.30;31.00;;;;;;683231;29;1433;-85
2022/03/29 01:52:12;;;;;;;;;;;23.30;30.60;;;;;;682688;29;1212;-86
2022/03/29 01:52:39;;;;;;;;;;;23.30;30.60;;;;;;683766;28;1255;-86
2022/03/29 01:53:00;;;;;;;;;;;23.30;30.30;;;;;;685770;28;799;-86
2022/03/29 01:53:21;;;;;;;;;;;23.30;30.50;;;;;;686808;28;1364;-85
2022/03/29 01:53:42;;;;;;;;;;;23.30;30.40;;;;;;685808;28;1138;-86
2022/03/29 01:54:02;;;;;;;;;;;23.30;30.30;;;;;;683226;29;1387;-86
2022/03/29 01:54:23;;;;;;;;;;;23.30;31.10;;;;;;684558;28;1127;-86
2022/03/29 01:54:44;;;;;;;;;;;23.20;31.30;;;;;;686007;28;1216;-86
2022/03/29 01:55:05;;;;;;;;;;;23.30;31.80;;;;;;683128;29;1232;-86
2022/03/29 01:55:25;;;;;;;;;;;23.30;31.50;;;;;;683565;28;1369;-86
2022/03/29 01:55:47;;;;;;;;;;;23.30;32.50;;;;;;683155;29;1278;-86
2022/03/29 01:56:08;;;;;;;;;;;23.30;31.00;;;;;;683058;29;1273;-85
2022/03/29 01:56:29;;;;;;;;;;;23.30;32.00;;;;;;680940;29;1200;-86
2022/03/29 01:56:50;;;;;;;;;;;23.30;30.60;;;;;;681191;29;1117;-86
2022/03/29 01:57:11;;;;;;;;;;;23.30;31.40;;;;;;683101;29;863;-86
2022/03/29 01:57:32;;;;;;;;;;;23.30;30.90;;;;;;681288;29;1360;-86
2022/03/29 01:57:53;;;;;;;;;;;23.30;30.60;;;;;;683550;29;1463;-86
2022/03/29 01:58:13;;;;;;;;;;;23.30;30.40;;;;;;683695;28;854;-86
2022/03/29 01:58:34;;;;;;;;;;;23.30;30.80;;;;;;683711;28;1314;-86
2022/03/29 01:58:54;;;;;;;;;;;23.30;30.80;;;;;;687920;28;1249;-86
2022/03/29 01:59:15;;;;;;;;;;;23.30;30.40;;;;;;688436;28;1256;-86
2022/03/29 02:00:32;;;;;;;;;;;23.30;30.60;;;;;;689159;28;684;-87
2022/03/29 02:00:52;;;;;;;;;;;23.30;30.40;;;;;;688772;28;1261;-87
2022/03/29 02:01:13;;;;;;;;;;;23.30;30.40;;;;;;688579;28;1068;-86
2022/03/29 02:01:40;;;;;;;;;;;23.30;30.80;;;;;;686421;29;1371;-86
2022/03/29 02:02:00;;;;;;;;;;;23.30;30.10;;;;;;682851;29;1366;-86
2022/03/29 02:02:21;;;;;;;;;;;23.30;31.90;;;;;;683080;29;1298;-85
2022/03/29 02:02:41;;;;;;;;;;;23.20;31.60;;;;;;684204;28;1288;-85
2022/03/29 02:03:04;;;;;;;;;;;23.30;30.50;;;;;;685782;28;1166;-85
2022/03/29 02:03:24;;;;;;;;;;;23.30;30.40;;;;;;685796;28;1148;-86
2022/03/29 02:03:45;;;;;;;;;;;23.30;30.80;;;;;;682587;29;1178;-86
2022/03/29 02:04:05;;;;;;;;;;;23.30;31.50;;;;;;680591;29;1302;-86
2022/03/29 02:04:26;;;;;;;;;;;23.30;30.50;;;;;;681007;29;1410;-85
2022/03/29 02:04:47;;;;;;;;;;;23.30;30.30;;;;;;680938;29;1437;-86
2022/03/29 02:05:07;;;;;;;;;;;23.30;30.60;;;;;;680772;29;1195;-85
2022/03/29 02:05:30;;;;;;;;;;;23.30;30.50;;;;;;685469;28;1616;-85
2022/03/29 02:05:51;;;;;;;;;;;23.30;30.30;;;;;;685964;28;1114;-85
2022/03/29 02:06:11;;;;;;;;;;;23.30;30.60;;;;;;685677;28;1239;-86
2022/03/29 02:06:32;;;;;;;;;;;23.30;30.50;;;;;;685693;28;1196;-85
2022/03/29 02:06:52;;;;;;;;;;;23.20;30.00;;;;;;685487;28;1158;-86
2022/03/29 02:07:13;;;;;;;;;;;23.30;30.30;;;;;;685923;28;1370;-86
2022/03/29 02:07:33;;;;;;;;;;;23.20;30.60;;;;;;685728;28;1219;-86
2022/03/29 02:07:54;;;;;;;;;;;23.20;30.70;;;;;;685792;28;1173;-86
2022/03/29 02:08:16;;;;;;;;;;;23.20;30.40;;;;;;685761;28;1224;-86
2022/03/29 02:08:36;;;;;;;;;;;23.20;30.70;;;;;;686011;28;1452;-86
2022/03/29 02:08:57;;;;;;;;;;;23.20;30.20;;;;;;685838;28;1344;-86
2022/03/29 02:09:18;;;;;;;;;;;23.20;30.40;;;;;;682640;29;1408;-86